Time;durP1;ratioP1;P1;durP2;ratioP2;P2;SDS_P1;SDS_P2;PMS_P1;PMS_P2;Temp;Humidity;BMP_temperature;BMP_pressure;BME280_temperature;BME280_humidity;BME280_pressure;Samples;Min_cycle;Max_cycle;Signal;HPM_P1;HPM_P2
2022/11/19 00:00:56;;;;;;;12.15;7.25;;;6.00;99.90;;;;;;5029792;28;20141;-74
2022/11/19 00:03:22;;;;;;;10.52;6.78;;;6.10;99.90;;;;;;5032087;28;20036;-74
2022/11/19 00:05:49;;;;;;;9.73;6.57;;;5.90;99.90;;;;;;5036772;28;20380;-74
2022/11/19 00:08:18;;;;;;;12.00;7.30;;;5.90;99.90;;;;;;5031481;28;20134;-73
2022/11/19 00:10:45;;;;;;;8.27;6.20;;;5.80;99.90;;;;;;5025626;28;20064;-73
2022/11/19 00:13:13;;;;;;;11.57;7.00;;;5.70;99.90;;;;;;5024019;28;20032;-74
2022/11/19 00:15:41;;;;;;;12.98;7.07;;;5.70;99.90;;;;;;5030095;28;20030;-72
2022/11/19 00:18:06;;;;;;;9.60;6.70;;;5.70;99.90;;;;;;5031948;28;20327;-73
2022/11/19 00:20:35;;;;;;;10.25;6.70;;;5.80;99.90;;;;;;5033603;28;20025;-73
2022/11/19 00:23:01;;;;;;;9.52;6.95;;;5.80;99.90;;;;;;5034361;28;20030;-74
2022/11/19 00:25:29;;;;;;;13.18;7.78;;;5.70;99.90;;;;;;5033347;28;20584;-74
2022/11/19 00:28:01;;;;;;;9.35;6.90;;;5.70;99.90;;;;;;5048456;28;20026;-74
2022/11/19 00:30:26;;;;;;;11.95;7.60;;;5.70;99.90;;;;;;5033137;28;20039;-74
2022/11/19 00:32:52;;;;;;;11.38;7.65;;;5.70;99.90;;;;;;5028184;28;20606;-74
2022/11/19 00:35:17;;;;;;;11.98;7.88;;;5.70;99.90;;;;;;5028090;28;20530;-74
2022/11/19 00:37:43;;;;;;;10.70;7.32;;;5.70;99.90;;;;;;5032622;28;20116;-73
2022/11/19 00:40:11;;;;;;;10.20;6.53;;;5.70;99.90;;;;;;5024593;28;20034;-74
2022/11/19 00:42:38;;;;;;;12.25;8.27;;;5.70;99.90;;;;;;5020266;28;20723;-74
2022/11/19 00:45:05;;;;;;;10.98;7.57;;;5.70;99.90;;;;;;5031843;28;20553;-74
2022/11/19 00:47:31;;;;;;;12.63;8.00;;;5.70;99.90;;;;;;5038367;28;20442;-73
2022/11/19 00:49:57;;;;;;;11.30;7.50;;;5.70;99.90;;;;;;5030452;28;20044;-74
2022/11/19 00:52:22;;;;;;;16.10;8.13;;;5.70;99.90;;;;;;5028977;28;20025;-74
2022/11/19 00:54:50;;;;;;;12.27;8.75;;;5.60;99.90;;;;;;5033770;28;20036;-74
2022/11/19 00:57:16;;;;;;;14.38;9.13;;;5.70;99.90;;;;;;5030785;28;20060;-74
2022/11/19 00:59:44;;;;;;;13.48;8.45;;;5.60;99.90;;;;;;5044088;28;20013;-73
2022/11/19 01:02:10;;;;;;;14.55;8.77;;;5.60;99.90;;;;;;5035067;28;20366;-74
2022/11/19 01:04:38;;;;;;;13.10;8.88;;;5.70;99.90;;;;;;5025581;28;20030;-73
2022/11/19 01:07:08;;;;;;;16.88;8.23;;;5.70;99.90;;;;;;5030773;28;20039;-74
2022/11/19 01:09:36;;;;;;;19.85;9.38;;;5.60;99.90;;;;;;5033305;28;20079;-73
2022/11/19 01:12:01;;;;;;;16.17;9.40;;;5.60;99.90;;;;;;5033869;28;20088;-73
2022/11/19 01:14:27;;;;;;;14.70;8.90;;;5.60;99.90;;;;;;5036802;28;20100;-73
2022/11/19 01:16:53;;;;;;;17.00;10.23;;;5.50;99.90;;;;;;5036531;28;20045;-73
2022/11/19 01:19:21;;;;;;;17.08;9.95;;;5.50;99.90;;;;;;5039397;28;20032;-73
2022/11/19 01:21:46;;;;;;;20.05;10.50;;;5.50;99.90;;;;;;5040067;28;20026;-73
2022/11/19 01:24:12;;;;;;;16.67;9.40;;;5.50;99.90;;;;;;5034585;28;20461;-73
2022/11/19 01:26:37;;;;;;;15.20;9.95;;;5.40;99.90;;;;;;5039546;28;20032;-73
2022/11/19 01:29:06;;;;;;;20.60;11.90;;;5.40;99.90;;;;;;5040875;28;20036;-73
2022/11/19 01:31:32;;;;;;;17.02;10.90;;;5.40;99.90;;;;;;5031230;28;20124;-73
2022/11/19 01:33:58;;;;;;;21.85;10.27;;;5.40;99.90;;;;;;5033745;28;20458;-73
2022/11/19 01:36:26;;;;;;;19.92;10.82;;;5.40;99.90;;;;;;5032686;28;20028;-73
2022/11/19 01:38:55;;;;;;;19.55;11.07;;;5.30;99.90;;;;;;5035099;28;20043;-73
2022/11/19 01:41:22;;;;;;;21.05;11.43;;;5.30;99.90;;;;;;5034732;28;20025;-73
2022/11/19 01:43:52;;;;;;;18.60;10.77;;;5.40;99.90;;;;;;5047307;28;20021;-72
2022/11/19 01:46:21;;;;;;;18.70;11.02;;;5.40;99.90;;;;;;5049478;28;20017;-73
2022/11/19 01:49:07;;;;;;;20.33;11.90;;;5.40;99.90;;;;;;5037772;28;20092;-74
2022/11/19 01:51:55;;;;;;;21.42;11.95;;;5.40;99.90;;;;;;5034949;28;20370;-74
2022/11/19 01:54:27;;;;;;;21.50;11.55;;;5.40;99.90;;;;;;5031332;28;20117;-74
2022/11/19 01:56:57;;;;;;;21.05;11.88;;;5.40;99.90;;;;;;5035571;28;20060;-74
2022/11/19 01:59:25;;;;;;;26.90;13.55;;;5.50;99.90;;;;;;5030597;28;20076;-73
2022/11/19 02:01:51;;;;;;;20.73;11.98;;;5.40;99.90;;;;;;5032078;28;20250;-74
2022/11/19 02:04:19;;;;;;;20.77;12.40;;;5.40;99.90;;;;;;5038291;28;20022;-73
2022/11/19 02:06:45;;;;;;;22.50;12.73;;;5.40;99.90;;;;;;5037940;28;20042;-72
2022/11/19 02:09:10;;;;;;;23.98;12.55;;;5.40;99.90;;;;;;5035913;28;20021;-73
2022/11/19 02:11:42;;;;;;;26.85;14.30;;;5.40;99.90;;;;;;5037892;28;20049;-73
2022/11/19 02:14:36;;;;;;;23.42;12.48;;;5.40;99.90;;;;;;5034810;28;20035;-73
2022/11/19 02:17:31;;;;;;;21.75;12.38;;;5.40;99.90;;;;;;5022568;28;20032;-74
2022/11/19 02:20:16;;;;;;;21.88;12.57;;;5.40;99.90;;;;;;5031485;28;20041;-74
2022/11/19 02:23:09;;;;;;;24.83;14.05;;;5.40;99.90;;;;;;5026585;28;20025;-73
2022/11/19 02:25:38;;;;;;;22.58;13.00;;;5.40;99.90;;;;;;5029718;28;20100;-73
2022/11/19 02:28:30;;;;;;;23.40;13.02;;;5.30;99.90;;;;;;5040421;28;20523;-73
2022/11/19 02:31:13;;;;;;;28.83;14.55;;;5.20;99.90;;;;;;5033628;28;20082;-73
2022/11/19 02:34:17;;;;;;;29.42;13.57;;;5.20;99.90;;;;;;5038506;28;20350;-73
2022/11/19 02:37:01;;;;;;;28.08;14.60;;;5.20;99.90;;;;;;5026784;28;20044;-72
2022/11/19 02:39:38;;;;;;;31.20;14.00;;;5.20;99.90;;;;;;5039312;28;20037;-73
2022/11/19 02:42:45;;;;;;;23.80;14.07;;;5.10;99.90;;;;;;5044870;28;20029;-74
2022/11/19 02:45:27;;;;;;;29.75;14.55;;;5.20;99.90;;;;;;5017566;28;20045;-74
2022/11/19 02:48:00;;;;;;;27.58;15.80;;;5.10;99.90;;;;;;5030079;28;20060;-73
2022/11/19 02:50:45;;;;;;;28.67;15.60;;;5.10;99.90;;;;;;5025353;28;20030;-73
2022/11/19 02:53:11;;;;;;;26.48;14.82;;;5.10;99.90;;;;;;5032171;28;20083;-73
2022/11/19 02:55:38;;;;;;;30.02;14.00;;;5.10;99.90;;;;;;5036862;28;20029;-73
2022/11/19 03:04:28;;;;;;;30.17;16.85;;;5.00;99.90;;;;;;5041828;28;20013;-73
2022/11/19 03:06:31;;;;;;;28.80;15.25;;;4.90;99.90;;;;;;5026138;28;20057;-73
2022/11/19 03:09:00;;;;;;;32.75;16.58;;;5.00;99.90;;;;;;5027408;28;20021;-73
2022/11/19 03:11:28;;;;;;;30.55;15.32;;;5.00;99.90;;;;;;5025662;28;20029;-73
2022/11/19 03:16:57;;;;;;;27.02;14.43;;;4.90;99.90;;;;;;5031908;28;20362;-73
2022/11/19 03:19:47;;;;;;;34.08;17.90;;;4.80;99.90;;;;;;5032085;28;20021;-73
2022/11/19 03:22:37;;;;;;;36.13;17.42;;;4.80;99.90;;;;;;5031872;28;20018;-73
2022/11/19 03:25:21;;;;;;;34.10;16.45;;;4.80;99.90;;;;;;5041644;28;20032;-74
2022/11/19 03:27:53;;;;;;;31.02;16.02;;;4.80;99.90;;;;;;5038648;28;20029;-75
2022/11/19 03:30:19;;;;;;;29.58;15.95;;;4.80;99.90;;;;;;5035080;28;20025;-74
2022/11/19 03:32:54;;;;;;;31.85;16.23;;;4.80;99.90;;;;;;5031222;28;20439;-74
2022/11/19 03:35:26;;;;;;;32.03;17.05;;;4.80;99.90;;;;;;5028512;28;20076;-75
2022/11/19 03:37:58;;;;;;;34.30;17.33;;;4.80;99.90;;;;;;5027302;28;20092;-74
2022/11/19 03:40:25;;;;;;;32.13;17.65;;;4.80;99.90;;;;;;5022553;28;20423;-75
2022/11/19 03:42:53;;;;;;;29.60;16.30;;;4.80;99.90;;;;;;5032006;28;20029;-72
2022/11/19 03:45:24;;;;;;;36.35;17.40;;;4.70;99.90;;;;;;5033705;28;20060;-74
2022/11/19 03:47:52;;;;;;;32.55;17.38;;;4.70;99.90;;;;;;5026197;28;20037;-73
2022/11/19 03:50:26;;;;;;;33.97;17.10;;;4.70;99.90;;;;;;5041273;28;20040;-74
2022/11/19 03:52:53;;;;;;;33.75;16.67;;;4.70;99.90;;;;;;5029628;28;20017;-73
2022/11/19 03:55:23;;;;;;;36.85;17.67;;;4.70;99.90;;;;;;5019611;28;20034;-73
2022/11/19 03:57:50;;;;;;;36.55;17.80;;;4.60;99.90;;;;;;5028609;28;20026;-73
2022/11/19 04:00:16;;;;;;;37.30;18.13;;;4.60;99.90;;;;;;5026852;28;20112;-73
2022/11/19 04:02:42;;;;;;;35.08;17.30;;;4.60;99.90;;;;;;5025155;28;20033;-72
2022/11/19 04:05:10;;;;;;;35.38;17.45;;;4.70;99.90;;;;;;5026569;28;20080;-73
2022/11/19 04:07:36;;;;;;;38.22;18.10;;;4.70;99.90;;;;;;5029761;28;20063;-73
2022/11/19 04:10:02;;;;;;;33.42;16.92;;;4.70;99.90;;;;;;5032299;28;20095;-73
2022/11/19 04:12:27;;;;;;;37.40;18.50;;;4.70;99.90;;;;;;5031923;28;20112;-73
2022/11/19 04:14:53;;;;;;;40.15;18.85;;;4.70;99.90;;;;;;5039067;28;20500;-73
2022/11/19 04:17:19;;;;;;;35.95;18.42;;;4.60;99.90;;;;;;5036248;28;20052;-73
2022/11/19 04:19:45;;;;;;;38.25;18.38;;;4.60;99.90;;;;;;5033556;28;20030;-73
2022/11/19 04:22:11;;;;;;;36.17;18.48;;;4.60;99.90;;;;;;5028782;28;20029;-73
2022/11/19 04:24:37;;;;;;;36.30;19.65;;;4.60;99.90;;;;;;5025759;28;20043;-73
2022/11/19 04:27:03;;;;;;;39.25;19.83;;;4.50;99.90;;;;;;5029211;28;20059;-73
2022/11/19 04:29:28;;;;;;;38.33;19.17;;;4.50;99.90;;;;;;5024473;28;20033;-73
2022/11/19 04:31:54;;;;;;;42.85;19.88;;;4.40;99.90;;;;;;5037049;28;20030;-73
2022/11/19 04:34:22;;;;;;;40.20;19.95;;;4.40;99.90;;;;;;5034399;28;20043;-73
2022/11/19 04:36:48;;;;;;;36.67;17.75;;;4.50;99.90;;;;;;5036199;28;20055;-73
2022/11/19 04:39:14;;;;;;;39.08;19.02;;;4.50;99.90;;;;;;5038567;28;20037;-73
2022/11/19 04:41:39;;;;;;;41.05;20.40;;;4.40;99.90;;;;;;5038723;28;20021;-73
2022/11/19 04:44:08;;;;;;;40.10;19.35;;;4.40;99.90;;;;;;5033689;28;20105;-73
2022/11/19 04:46:33;;;;;;;43.42;19.23;;;4.30;99.90;;;;;;5032667;28;20032;-74
2022/11/19 04:48:59;;;;;;;41.33;19.13;;;4.30;99.90;;;;;;5027065;28;20034;-74
2022/11/19 04:51:25;;;;;;;41.95;18.83;;;4.30;99.90;;;;;;5019524;28;20021;-74
2022/11/19 04:53:53;;;;;;;35.00;17.85;;;4.30;99.90;;;;;;5029873;28;20040;-74
2022/11/19 04:56:19;;;;;;;44.33;22.13;;;4.30;99.90;;;;;;5033109;28;20099;-72
2022/11/19 04:58:44;;;;;;;40.90;20.13;;;4.30;99.90;;;;;;5034645;28;20025;-73
2022/11/19 05:01:10;;;;;;;42.63;20.33;;;4.30;99.90;;;;;;5035788;28;20366;-73
2022/11/19 05:03:38;;;;;;;42.22;20.77;;;4.20;99.90;;;;;;5032766;28;20030;-74
2022/11/19 05:06:04;;;;;;;41.17;19.50;;;4.20;99.90;;;;;;5036955;28;20470;-73
2022/11/19 05:08:32;;;;;;;38.42;19.85;;;4.30;99.90;;;;;;5034411;28;20033;-74
2022/11/19 05:11:00;;;;;;;40.67;19.45;;;4.20;99.90;;;;;;5028420;28;20025;-73
2022/11/19 05:13:25;;;;;;;45.55;20.48;;;4.20;99.90;;;;;;5028023;28;20327;-74
2022/11/19 05:15:51;;;;;;;42.35;20.23;;;4.20;99.90;;;;;;5022538;28;20024;-74
2022/11/19 05:18:19;;;;;;;40.20;19.90;;;4.30;99.90;;;;;;5026303;28;20032;-74
2022/11/19 05:20:46;;;;;;;40.55;19.38;;;4.30;99.90;;;;;;5030843;28;20038;-74
2022/11/19 05:23:14;;;;;;;39.65;19.27;;;4.20;99.90;;;;;;5035707;28;20043;-74
2022/11/19 05:25:45;;;;;;;42.30;18.58;;;4.20;99.90;;;;;;5039359;28;20025;-73
2022/11/19 05:28:10;;;;;;;44.55;20.88;;;4.20;99.90;;;;;;5036903;28;20030;-74
2022/11/19 05:30:41;;;;;;;41.03;19.20;;;4.20;99.90;;;;;;5037960;28;20029;-74
2022/11/19 05:33:07;;;;;;;38.35;18.70;;;4.20;99.90;;;;;;5036113;28;20064;-74
2022/11/19 05:35:33;;;;;;;37.08;18.33;;;4.20;99.90;;;;;;5028261;28;20030;-73
2022/11/19 05:37:59;;;;;;;41.45;19.50;;;4.20;99.90;;;;;;5024838;28;20113;-73
2022/11/19 05:40:25;;;;;;;45.25;19.75;;;4.30;99.90;;;;;;5021436;28;20029;-74
2022/11/19 05:42:50;;;;;;;44.03;19.83;;;4.20;99.90;;;;;;5037595;28;20115;-73
2022/11/19 05:45:16;;;;;;;44.67;20.00;;;4.30;99.90;;;;;;5031032;28;20029;-74
2022/11/19 05:47:46;;;;;;;45.28;19.27;;;4.30;99.90;;;;;;5031907;28;20021;-74
2022/11/19 05:50:12;;;;;;;42.97;19.13;;;4.30;99.90;;;;;;5036814;28;20036;-73
2022/11/19 05:52:37;;;;;;;41.78;19.33;;;4.30;99.90;;;;;;5037330;28;20029;-73
2022/11/19 05:55:04;;;;;;;40.60;18.63;;;4.30;99.90;;;;;;5039413;28;20070;-73
2022/11/19 05:57:29;;;;;;;38.90;17.73;;;4.30;99.90;;;;;;5035352;28;20025;-73
2022/11/19 05:59:55;;;;;;;39.15;19.40;;;4.30;99.90;;;;;;5034122;28;20030;-71
2022/11/19 06:02:20;;;;;;;42.50;20.05;;;4.30;99.90;;;;;;5028299;28;20037;-73
2022/11/19 06:04:46;;;;;;;39.42;17.08;;;4.30;99.90;;;;;;5030945;28;20044;-73
2022/11/19 06:07:12;;;;;;;43.10;18.45;;;4.30;99.90;;;;;;5030680;28;20438;-73
2022/11/19 06:09:37;;;;;;;43.05;19.52;;;4.30;99.90;;;;;;5043047;28;20025;-74
2022/11/19 06:12:03;;;;;;;44.65;19.42;;;4.30;99.90;;;;;;5047423;28;20029;-72
2022/11/19 06:14:31;;;;;;;39.97;18.90;;;4.40;99.90;;;;;;5035884;28;20029;-72
2022/11/19 06:16:59;;;;;;;45.58;18.02;;;4.40;99.90;;;;;;5041886;28;20468;-74
2022/11/19 06:19:25;;;;;;;43.95;19.88;;;4.30;99.90;;;;;;5033710;28;20123;-74
2022/11/19 06:21:53;;;;;;;37.88;18.38;;;4.20;99.90;;;;;;5038185;28;20025;-74
2022/11/19 06:24:22;;;;;;;39.22;18.17;;;4.10;99.90;;;;;;5036309;28;20119;-73
2022/11/19 06:26:48;;;;;;;40.67;18.58;;;4.10;99.90;;;;;;5034562;28;20107;-73
2022/11/19 06:29:14;;;;;;;40.45;19.35;;;4.10;99.90;;;;;;5032980;28;20061;-74
2022/11/19 06:31:43;;;;;;;43.20;19.23;;;4.10;99.90;;;;;;5039621;28;20040;-73
2022/11/19 06:34:11;;;;;;;40.63;17.75;;;4.10;99.90;;;;;;5028867;28;20631;-74
2022/11/19 06:36:36;;;;;;;39.03;17.60;;;4.00;99.90;;;;;;5040229;28;20033;-74
2022/11/19 06:39:05;;;;;;;39.55;17.30;;;4.10;99.90;;;;;;5033064;28;20041;-73
2022/11/19 06:41:30;;;;;;;37.03;17.55;;;4.10;99.90;;;;;;5038409;28;20030;-72
2022/11/19 06:43:58;;;;;;;37.13;15.75;;;4.10;99.90;;;;;;5033919;28;20033;-76
2022/11/19 06:46:29;;;;;;;34.03;15.77;;;4.10;99.90;;;;;;5032542;28;20018;-77
2022/11/19 06:48:55;;;;;;;35.22;16.52;;;4.10;99.90;;;;;;5031528;28;20022;-75
2022/11/19 06:51:23;;;;;;;35.78;16.20;;;4.00;99.90;;;;;;5035757;28;20091;-75
2022/11/19 06:53:51;;;;;;;32.17;15.20;;;4.00;99.90;;;;;;5039900;28;20025;-75
2022/11/19 06:56:19;;;;;;;30.63;14.95;;;4.00;99.90;;;;;;5042312;28;20040;-75
2022/11/19 06:58:47;;;;;;;32.88;15.18;;;4.00;99.90;;;;;;5044028;28;20021;-75
2022/11/19 07:01:14;;;;;;;31.85;14.50;;;4.00;99.90;;;;;;5029705;28;20029;-76
2022/11/19 07:03:40;;;;;;;35.17;16.30;;;4.10;99.90;;;;;;5031859;28;20056;-74
2022/11/19 07:06:08;;;;;;;31.30;15.40;;;4.00;99.90;;;;;;5036265;28;20028;-74
2022/11/19 07:08:36;;;;;;;33.67;15.82;;;4.00;99.90;;;;;;5022749;28;20149;-76
2022/11/19 07:11:24;;;;;;;35.58;14.88;;;3.90;99.90;;;;;;5032595;28;20018;-75
2022/11/19 07:13:58;;;;;;;33.45;15.32;;;4.00;99.90;;;;;;5031385;28;20034;-76
2022/11/19 07:16:35;;;;;;;31.50;15.20;;;3.90;99.90;;;;;;5034462;28;20037;-76
2022/11/19 07:19:02;;;;;;;32.63;15.25;;;3.90;99.90;;;;;;5025287;28;20028;-75
2022/11/19 07:21:29;;;;;;;31.60;15.18;;;3.90;99.90;;;;;;5029634;28;20021;-76
2022/11/19 07:23:56;;;;;;;33.28;15.93;;;3.90;99.90;;;;;;5023968;28;20034;-76
2022/11/19 07:26:24;;;;;;;31.73;14.60;;;3.90;99.90;;;;;;5031716;28;20151;-75
2022/11/19 07:28:53;;;;;;;32.42;14.45;;;3.90;99.90;;;;;;5031399;28;20028;-74
2022/11/19 07:31:18;;;;;;;31.60;15.48;;;4.00;99.90;;;;;;5029953;28;20469;-76
2022/11/19 07:33:44;;;;;;;29.10;13.93;;;3.80;99.90;;;;;;5029279;28;20029;-76
2022/11/19 07:36:13;;;;;;;33.08;14.15;;;3.80;99.90;;;;;;5028173;28;20121;-74
2022/11/19 07:38:39;;;;;;;31.88;14.70;;;3.80;99.90;;;;;;5030972;28;20327;-75
2022/11/19 07:42:48;;;;;;;31.95;13.88;;;3.70;99.90;;;;;;5027704;28;20096;-74
2022/11/19 07:43:56;;;;;;;25.05;12.50;;;3.70;99.90;;;;;;5035819;28;20041;-73
2022/11/19 07:46:22;;;;;;;25.90;14.00;;;3.70;99.90;;;;;;5040896;28;20123;-75
2022/11/19 07:48:55;;;;;;;29.88;14.65;;;3.70;99.90;;;;;;5038733;28;20033;-75
2022/11/19 07:51:21;;;;;;;27.48;13.38;;;3.80;99.90;;;;;;5031413;28;20685;-75
2022/11/19 07:53:47;;;;;;;27.20;12.23;;;3.70;99.90;;;;;;5026784;28;20506;-75
2022/11/19 07:56:12;;;;;;;28.00;13.75;;;3.70;99.90;;;;;;5025065;28;20105;-74
2022/11/19 07:58:40;;;;;;;25.75;13.20;;;3.80;99.90;;;;;;5031789;28;20032;-75
2022/11/19 08:01:13;;;;;;;26.85;13.75;;;3.70;99.90;;;;;;5027606;28;20466;-72
2022/11/19 08:03:44;;;;;;;30.98;14.82;;;3.70;99.90;;;;;;5026883;28;20025;-75
2022/11/19 08:06:11;;;;;;;29.92;13.48;;;3.70;99.90;;;;;;5035596;28;20025;-75
2022/11/19 08:08:37;;;;;;;27.20;13.95;;;3.70;99.90;;;;;;5036442;28;20478;-75
2022/11/19 08:11:05;;;;;;;31.02;13.45;;;3.80;99.90;;;;;;5032574;28;20036;-75
2022/11/19 08:13:31;;;;;;;34.58;15.10;;;3.80;99.90;;;;;;5029549;28;20116;-76
2022/11/19 08:16:02;;;;;;;27.70;13.40;;;3.70;99.90;;;;;;5034086;28;20445;-75
2022/11/19 08:18:32;;;;;;;31.52;14.15;;;3.80;99.90;;;;;;5029977;28;20037;-75
2022/11/19 08:21:09;;;;;;;26.60;12.88;;;3.80;99.90;;;;;;5029219;28;20025;-76
2022/11/19 08:23:38;;;;;;;26.58;12.38;;;3.70;99.90;;;;;;5029661;28;20438;-76
2022/11/19 08:26:06;;;;;;;27.75;12.48;;;3.60;99.90;;;;;;5032137;28;20037;-75
2022/11/19 08:28:32;;;;;;;23.25;12.57;;;3.60;99.90;;;;;;5029467;28;20598;-76
2022/11/19 08:31:06;;;;;;;24.20;12.48;;;3.60;99.90;;;;;;5028958;28;20025;-75
2022/11/19 08:33:31;;;;;;;24.17;11.77;;;3.70;99.90;;;;;;5027889;28;20536;-75
2022/11/19 08:36:02;;;;;;;29.52;13.57;;;3.60;99.90;;;;;;5028556;28;20029;-76
2022/11/19 08:38:28;;;;;;;26.20;13.00;;;3.60;99.90;;;;;;5033082;28;20056;-76
2022/11/19 08:42:58;;;;;;;22.73;12.15;;;3.60;99.90;;;;;;5037115;28;20025;-76
2022/11/19 08:43:40;;;;;;;25.40;12.23;;;3.50;99.90;;;;;;5026945;28;20041;-80
2022/11/19 08:46:06;;;;;;;28.85;11.95;;;3.50;99.90;;;;;;5025719;28;20474;-77
2022/11/19 08:48:32;;;;;;;22.60;11.90;;;3.50;99.90;;;;;;5029169;28;20033;-78
2022/11/19 08:50:58;;;;;;;23.95;10.88;;;3.50;99.90;;;;;;5030363;28;20100;-76
2022/11/19 08:53:23;;;;;;;19.48;10.93;;;3.50;99.90;;;;;;5032788;28;20462;-74
2022/11/19 08:55:52;;;;;;;20.23;10.60;;;3.50;99.90;;;;;;5033333;28;20053;-76
2022/11/19 08:58:17;;;;;;;19.92;11.18;;;3.60;99.90;;;;;;5030900;28;20097;-75
2022/11/19 09:00:43;;;;;;;20.50;10.50;;;3.70;99.90;;;;;;5033928;28;20029;-75
2022/11/19 09:03:11;;;;;;;20.98;10.55;;;3.60;99.90;;;;;;5030041;28;20121;-75
2022/11/19 09:05:37;;;;;;;21.58;10.77;;;3.70;99.90;;;;;;5031146;28;20022;-76
2022/11/19 09:08:06;;;;;;;20.55;11.18;;;3.80;99.90;;;;;;5026750;28;20033;-76
2022/11/19 09:10:36;;;;;;;22.55;10.75;;;3.80;99.90;;;;;;5036806;28;20022;-75
2022/11/19 09:13:02;;;;;;;18.13;10.00;;;3.80;99.90;;;;;;5046283;28;20410;-75
2022/11/19 09:15:28;;;;;;;18.42;9.40;;;3.80;99.90;;;;;;5026717;28;20113;-72
2022/11/19 09:17:54;;;;;;;19.80;10.80;;;3.90;99.90;;;;;;5032414;28;20228;-72
2022/11/19 09:20:19;;;;;;;21.42;10.57;;;4.00;99.90;;;;;;5031682;28;20518;-78
2022/11/19 09:22:45;;;;;;;18.30;9.85;;;4.10;99.90;;;;;;5033029;28;20744;-77
2022/11/19 09:25:11;;;;;;;20.83;9.75;;;4.20;99.90;;;;;;5023343;28;20099;-73
2022/11/19 09:27:39;;;;;;;18.98;10.75;;;4.10;99.90;;;;;;5031655;28;20036;-74
2022/11/19 09:30:09;;;;;;;16.15;9.90;;;4.10;99.90;;;;;;5033438;28;20437;-75
2022/11/19 09:32:34;;;;;;;18.15;9.82;;;4.00;99.90;;;;;;5031575;28;20037;-73
2022/11/19 09:35:00;;;;;;;23.35;10.35;;;4.00;99.90;;;;;;5035225;28;20043;-69
2022/11/19 09:37:32;;;;;;;17.38;9.30;;;3.90;99.90;;;;;;5034903;28;20232;-76
2022/11/19 09:39:58;;;;;;;22.88;10.10;;;4.00;99.90;;;;;;5035948;28;20110;-74
2022/11/19 09:42:43;;;;;;;18.42;10.23;;;4.10;99.90;;;;;;5033197;28;20037;-75
2022/11/19 09:45:31;;;;;;;17.95;9.77;;;4.10;99.90;;;;;;5034527;28;20501;-79
2022/11/19 09:48:17;;;;;;;20.50;10.75;;;4.10;99.90;;;;;;5032986;28;20036;-75
2022/11/19 09:50:49;;;;;;;18.40;10.45;;;4.20;99.90;;;;;;5034097;28;20036;-75
2022/11/19 09:53:18;;;;;;;18.05;9.57;;;4.20;99.90;;;;;;5030791;28;20029;-76
2022/11/19 09:55:46;;;;;;;21.92;10.27;;;4.30;99.90;;;;;;5037929;28;20049;-75
2022/11/19 09:58:23;;;;;;;16.52;10.27;;;4.40;99.90;;;;;;5030025;28;20025;-76
2022/11/19 10:00:49;;;;;;;16.95;8.75;;;4.40;99.90;;;;;;5035995;28;20022;-73
2022/11/19 10:03:20;;;;;;;18.58;9.95;;;4.50;99.90;;;;;;5035056;28;20033;-74
2022/11/19 10:06:08;;;;;;;16.60;9.38;;;4.50;99.90;;;;;;5031095;28;20017;-73
2022/11/19 10:08:51;;;;;;;14.48;9.18;;;4.50;99.90;;;;;;5036856;28;20029;-72
2022/11/19 10:11:29;;;;;;;18.42;9.27;;;4.60;99.90;;;;;;5036652;28;20040;-71
2022/11/19 10:14:15;;;;;;;16.45;9.57;;;4.80;99.90;;;;;;5039301;28;20099;-72
2022/11/19 10:17:01;;;;;;;17.40;9.68;;;4.80;99.90;;;;;;5034086;28;20056;-72
2022/11/19 10:19:53;;;;;;;17.00;9.23;;;5.10;99.90;;;;;;5035794;28;20046;-74
2022/11/19 10:22:36;;;;;;;90.53;28.90;;;5.30;99.90;;;;;;5037186;28;20039;-73
2022/11/19 10:25:14;;;;;;;63.95;20.27;;;5.50;99.90;;;;;;5033078;28;20136;-73
2022/11/19 10:27:56;;;;;;;18.90;8.88;;;5.70;99.90;;;;;;5037695;28;20406;-77
2022/11/19 10:30:24;;;;;;;13.40;8.43;;;5.70;99.90;;;;;;5041024;28;20029;-74
2022/11/19 10:32:58;;;;;;;15.07;9.00;;;5.80;99.90;;;;;;5047885;28;20036;-74
2022/11/19 10:35:31;;;;;;;15.43;9.57;;;6.00;99.90;;;;;;5049534;28;20111;-75
2022/11/19 10:38:02;;;;;;;12.32;8.18;;;6.50;99.40;;;;;;5051811;28;20037;-74
2022/11/19 10:40:35;;;;;;;14.55;8.70;;;6.80;97.20;;;;;;5034189;28;20579;-74
2022/11/19 10:43:25;;;;;;;18.38;8.32;;;7.00;96.80;;;;;;5031999;28;20029;-74
2022/11/19 10:45:52;;;;;;;13.35;8.20;;;7.00;95.90;;;;;;5029362;28;20142;-76
2022/11/19 10:48:30;;;;;;;17.40;9.38;;;7.10;95.70;;;;;;5028760;28;20052;-71
2022/11/19 10:50:58;;;;;;;13.35;7.72;;;7.20;95.90;;;;;;5038674;28;20013;-74
2022/11/19 10:53:28;;;;;;;20.75;10.40;;;7.50;96.30;;;;;;5033826;28;20458;-75
2022/11/19 10:56:05;;;;;;;11.27;8.13;;;7.60;94.40;;;;;;5034304;28;20036;-75
2022/11/19 10:58:41;;;;;;;11.88;7.85;;;7.70;93.90;;;;;;5036988;28;20427;-75
2022/11/19 11:01:27;;;;;;;16.42;8.80;;;7.90;93.10;;;;;;5037332;28;20048;-75
2022/11/19 11:04:27;;;;;;;11.80;8.15;;;8.10;93.00;;;;;;5031279;28;20033;-75
2022/11/19 11:07:01;;;;;;;18.65;9.10;;;7.90;92.20;;;;;;5035029;28;20033;-77
2022/11/19 11:09:41;;;;;;;15.43;8.50;;;7.80;92.50;;;;;;5025758;28;20034;-75
2022/11/19 11:15:17;;;;;;;14.65;8.45;;;7.80;92.30;;;;;;5030377;28;20032;-76
2022/11/19 11:17:46;;;;;;;673.63;233.05;;;7.80;92.10;;;;;;5050462;28;20056;-72
2022/11/19 11:20:15;;;;;;;20.17;12.30;;;7.90;93.00;;;;;;5032114;28;20017;-73
2022/11/19 11:22:42;;;;;;;12.73;8.57;;;8.00;91.80;;;;;;5037815;28;20619;-75
2022/11/19 11:25:22;;;;;;;13.98;8.10;;;7.90;90.90;;;;;;5035337;28;20021;-76
2022/11/19 11:28:10;;;;;;;12.50;8.73;;;7.70;91.30;;;;;;5034946;28;20076;-77
2022/11/19 11:30:35;;;;;;;10.30;8.15;;;7.70;93.40;;;;;;5029011;28;20029;-75
2022/11/19 11:33:24;;;;;;;12.30;8.32;;;8.00;91.60;;;;;;5029015;28;20041;-76
2022/11/19 11:35:51;;;;;;;12.40;7.55;;;8.10;90.60;;;;;;5029248;28;20113;-77
2022/11/19 11:38:22;;;;;;;11.15;7.38;;;8.10;90.40;;;;;;5043201;28;20030;-75
2022/11/19 11:41:06;;;;;;;12.27;8.55;;;8.10;90.70;;;;;;5036254;28;20049;-74
2022/11/19 11:43:34;;;;;;;12.07;7.85;;;8.30;90.40;;;;;;5029331;28;20088;-76
2022/11/19 11:46:04;;;;;;;9.38;7.60;;;8.20;88.40;;;;;;5033410;28;20412;-75
2022/11/19 11:48:42;;;;;;;11.88;7.93;;;8.20;89.10;;;;;;5038346;28;20037;-75
2022/11/19 11:51:25;;;;;;;11.02;7.68;;;8.20;88.80;;;;;;5037260;28;20033;-72
2022/11/19 11:54:14;;;;;;;11.15;7.55;;;8.00;88.80;;;;;;5033732;28;20021;-75
2022/11/19 11:56:39;;;;;;;12.20;8.23;;;8.00;89.10;;;;;;5026859;28;20123;-74
2022/11/19 11:59:31;;;;;;;12.95;7.80;;;8.00;88.50;;;;;;5024522;28;20076;-75
2022/11/19 12:02:09;;;;;;;9.43;7.30;;;8.00;87.60;;;;;;5028208;28;20088;-75
2022/11/19 12:04:35;;;;;;;11.55;7.68;;;8.00;88.40;;;;;;5030746;28;20029;-75
2022/11/19 12:07:19;;;;;;;12.10;7.93;;;8.00;90.50;;;;;;5028538;28;20040;-76
2022/11/19 12:10:02;;;;;;;11.60;8.50;;;8.20;89.00;;;;;;5038253;28;20021;-77
2022/11/19 12:12:39;;;;;;;12.02;7.85;;;8.40;86.80;;;;;;5034678;28;20095;-76
2022/11/19 12:15:21;;;;;;;12.27;7.35;;;8.70;86.40;;;;;;5049414;28;20096;-74
2022/11/19 12:18:02;;;;;;;10.65;6.90;;;8.80;86.10;;;;;;5033156;28;20107;-75
2022/11/19 12:20:54;;;;;;;10.88;7.88;;;8.70;85.50;;;;;;5031107;28;20037;-75
2022/11/19 12:23:51;;;;;;;21.63;8.02;;;9.00;84.20;;;;;;5028772;28;20030;-72
2022/11/19 12:26:17;;;;;;;12.07;7.97;;;8.90;83.90;;;;;;5027463;28;20096;-75
2022/11/19 12:28:49;;;;;;;10.52;7.50;;;8.70;83.90;;;;;;5029929;28;20025;-76
2022/11/19 12:31:33;;;;;;;10.68;7.32;;;8.80;85.10;;;;;;5029618;28;20024;-74
2022/11/19 12:34:36;;;;;;;13.98;7.65;;;8.90;83.90;;;;;;5032172;28;20112;-75
2022/11/19 12:37:32;;;;;;;12.05;7.80;;;8.80;82.90;;;;;;5035590;28;20032;-75
2022/11/19 12:40:16;;;;;;;12.55;7.72;;;8.90;82.90;;;;;;5050009;28;20484;-74
2022/11/19 12:43:00;;;;;;;11.35;7.47;;;9.10;82.00;;;;;;5032510;28;20827;-75
2022/11/19 12:45:50;;;;;;;10.88;7.53;;;9.00;81.00;;;;;;5029789;28;20029;-76
2022/11/19 12:48:50;;;;;;;9.98;7.05;;;9.00;82.70;;;;;;5013723;28;20163;-76
2022/11/19 12:51:50;;;;;;;12.60;7.57;;;9.40;82.70;;;;;;5027485;28;20480;-73
2022/11/19 12:54:28;;;;;;;12.25;7.57;;;9.60;80.30;;;;;;5026994;28;20768;-75
2022/11/19 12:57:58;;;;;;;9.60;7.18;;;9.70;79.50;;;;;;5048065;28;20446;-75
2022/11/19 13:00:27;;;;;;;9.32;7.18;;;10.20;78.60;;;;;;4915243;29;20106;-75
2022/11/19 13:03:10;;;;;;;8.27;6.50;;;11.20;77.00;;;;;;4985522;28;20035;-74
2022/11/19 13:06:06;;;;;;;11.73;7.60;;;13.00;71.00;;;;;;4993296;28;20172;-75
2022/11/19 13:09:01;;;;;;;11.75;7.82;;;14.70;62.90;;;;;;4978572;28;20030;-76
2022/11/19 13:11:50;;;;;;;11.70;7.05;;;16.90;57.80;;;;;;4953716;28;20476;-75
2022/11/19 13:14:45;;;;;;;11.23;7.70;;;18.80;52.00;;;;;;4976463;28;20030;-75
2022/11/19 13:17:43;;;;;;;10.02;7.50;;;22.10;46.90;;;;;;4994586;28;20870;-74